sensor_id;sensor_type;location;lat;lon;timestamp;P1;durP1;ratioP1;P2;durP2;ratioP2
5585;SDS011;2815;54.094;12.112;2022-10-18T00:00:59;13.10;;;6.22;;
5585;SDS011;2815;54.094;12.112;2022-10-18T00:03:27;12.73;;;6.43;;
5585;SDS011;2815;54.094;12.112;2022-10-18T00:05:55;11.65;;;6.28;;
5585;SDS011;2815;54.094;12.112;2022-10-18T00:08:23;11.13;;;6.03;;
5585;SDS011;2815;54.094;12.112;2022-10-18T00:10:51;12.13;;;6.70;;
5585;SDS011;2815;54.094;12.112;2022-10-18T00:13:21;8.55;;;5.68;;
5585;SDS011;2815;54.094;12.112;2022-10-18T00:15:50;10.10;;;5.90;;
5585;SDS011;2815;54.094;12.112;2022-10-18T00:18:19;10.98;;;5.97;;
5585;SDS011;2815;54.094;12.112;2022-10-18T00:20:55;13.43;;;5.70;;
5585;SDS011;2815;54.094;12.112;2022-10-18T00:23:24;10.57;;;6.40;;
5585;SDS011;2815;54.094;12.112;2022-10-18T00:25:59;11.48;;;5.90;;
5585;SDS011;2815;54.094;12.112;2022-10-18T00:28:29;10.75;;;6.43;;
5585;SDS011;2815;54.094;12.112;2022-10-18T00:31:07;10.00;;;6.13;;
5585;SDS011;2815;54.094;12.112;2022-10-18T00:33:36;9.65;;;5.38;;
5585;SDS011;2815;54.094;12.112;2022-10-18T00:36:04;7.68;;;4.68;;
5585;SDS011;2815;54.094;12.112;2022-10-18T00:38:33;8.68;;;4.95;;
5585;SDS011;2815;54.094;12.112;2022-10-18T00:41:01;11.40;;;5.13;;
5585;SDS011;2815;54.094;12.112;2022-10-18T00:43:31;6.45;;;4.28;;
5585;SDS011;2815;54.094;12.112;2022-10-18T00:45:59;7.43;;;4.35;;
5585;SDS011;2815;54.094;12.112;2022-10-18T00:48:26;7.30;;;3.55;;
5585;SDS011;2815;54.094;12.112;2022-10-18T00:50:54;8.25;;;4.25;;
5585;SDS011;2815;54.094;12.112;2022-10-18T00:53:22;7.40;;;3.90;;
5585;SDS011;2815;54.094;12.112;2022-10-18T00:55:50;9.60;;;3.72;;
5585;SDS011;2815;54.094;12.112;2022-10-18T00:58:18;11.93;;;4.05;;
5585;SDS011;2815;54.094;12.112;2022-10-18T01:00:48;11.25;;;4.10;;
5585;SDS011;2815;54.094;12.112;2022-10-18T01:03:15;7.78;;;4.22;;
5585;SDS011;2815;54.094;12.112;2022-10-18T01:05:44;9.57;;;4.43;;
5585;SDS011;2815;54.094;12.112;2022-10-18T01:11:15;8.35;;;4.35;;
5585;SDS011;2815;54.094;12.112;2022-10-18T01:13:53;8.05;;;4.80;;
5585;SDS011;2815;54.094;12.112;2022-10-18T01:16:29;7.50;;;4.22;;
5585;SDS011;2815;54.094;12.112;2022-10-18T01:19:02;7.20;;;4.10;;
5585;SDS011;2815;54.094;12.112;2022-10-18T01:21:42;8.95;;;3.97;;
5585;SDS011;2815;54.094;12.112;2022-10-18T01:33:14;7.90;;;4.35;;
5585;SDS011;2815;54.094;12.112;2022-10-18T01:35:46;7.00;;;4.28;;
5585;SDS011;2815;54.094;12.112;2022-10-18T01:38:16;9.63;;;4.75;;
5585;SDS011;2815;54.094;12.112;2022-10-18T01:40:46;15.35;;;5.03;;
5585;SDS011;2815;54.094;12.112;2022-10-18T01:43:15;9.02;;;5.00;;
5585;SDS011;2815;54.094;12.112;2022-10-18T01:45:43;14.05;;;5.43;;
5585;SDS011;2815;54.094;12.112;2022-10-18T01:48:12;7.85;;;5.10;;
5585;SDS011;2815;54.094;12.112;2022-10-18T01:50:42;18.33;;;5.45;;
5585;SDS011;2815;54.094;12.112;2022-10-18T01:53:26;8.65;;;4.65;;
5585;SDS011;2815;54.094;12.112;2022-10-18T01:56:00;9.70;;;5.25;;
5585;SDS011;2815;54.094;12.112;2022-10-18T01:58:45;12.05;;;6.22;;
5585;SDS011;2815;54.094;12.112;2022-10-18T02:01:18;9.85;;;5.45;;
5585;SDS011;2815;54.094;12.112;2022-10-18T02:03:51;8.93;;;5.35;;
5585;SDS011;2815;54.094;12.112;2022-10-18T02:06:24;12.32;;;5.55;;
5585;SDS011;2815;54.094;12.112;2022-10-18T02:08:56;12.55;;;5.95;;
5585;SDS011;2815;54.094;12.112;2022-10-18T02:11:26;8.52;;;6.00;;
5585;SDS011;2815;54.094;12.112;2022-10-18T02:13:57;15.65;;;6.22;;
5585;SDS011;2815;54.094;12.112;2022-10-18T02:16:34;12.18;;;5.68;;
5585;SDS011;2815;54.094;12.112;2022-10-18T02:19:08;11.10;;;6.28;;
5585;SDS011;2815;54.094;12.112;2022-10-18T02:21:37;11.73;;;6.05;;
5585;SDS011;2815;54.094;12.112;2022-10-18T02:24:08;11.75;;;6.13;;
5585;SDS011;2815;54.094;12.112;2022-10-18T02:26:36;9.82;;;6.38;;
5585;SDS011;2815;54.094;12.112;2022-10-18T02:29:04;10.77;;;6.43;;
5585;SDS011;2815;54.094;12.112;2022-10-18T02:31:34;13.48;;;6.43;;
5585;SDS011;2815;54.094;12.112;2022-10-18T02:34:03;10.88;;;6.68;;
5585;SDS011;2815;54.094;12.112;2022-10-18T02:36:37;14.35;;;6.65;;
5585;SDS011;2815;54.094;12.112;2022-10-18T02:39:10;12.20;;;7.18;;
5585;SDS011;2815;54.094;12.112;2022-10-18T02:41:41;19.20;;;7.32;;
5585;SDS011;2815;54.094;12.112;2022-10-18T02:44:09;15.77;;;6.30;;
5585;SDS011;2815;54.094;12.112;2022-10-18T02:46:37;11.50;;;7.30;;
5585;SDS011;2815;54.094;12.112;2022-10-18T02:49:07;12.43;;;7.63;;
5585;SDS011;2815;54.094;12.112;2022-10-18T02:51:35;18.08;;;7.30;;
5585;SDS011;2815;54.094;12.112;2022-10-18T02:54:03;12.73;;;7.10;;
5585;SDS011;2815;54.094;12.112;2022-10-18T02:56:31;14.00;;;6.63;;
5585;SDS011;2815;54.094;12.112;2022-10-18T02:58:59;15.38;;;6.30;;
5585;SDS011;2815;54.094;12.112;2022-10-18T03:01:27;16.92;;;7.32;;
5585;SDS011;2815;54.094;12.112;2022-10-18T03:03:55;14.48;;;7.30;;
5585;SDS011;2815;54.094;12.112;2022-10-18T03:06:25;16.30;;;7.63;;
5585;SDS011;2815;54.094;12.112;2022-10-18T03:08:53;19.20;;;7.70;;
5585;SDS011;2815;54.094;12.112;2022-10-18T03:11:20;16.30;;;7.55;;
5585;SDS011;2815;54.094;12.112;2022-10-18T03:13:49;14.15;;;7.72;;
5585;SDS011;2815;54.094;12.112;2022-10-18T03:16:17;14.27;;;7.28;;
5585;SDS011;2815;54.094;12.112;2022-10-18T03:18:45;15.35;;;6.30;;
5585;SDS011;2815;54.094;12.112;2022-10-18T03:21:13;15.65;;;7.20;;
5585;SDS011;2815;54.094;12.112;2022-10-18T03:23:42;15.15;;;7.03;;
5585;SDS011;2815;54.094;12.112;2022-10-18T03:26:10;19.25;;;8.93;;
5585;SDS011;2815;54.094;12.112;2022-10-18T03:28:38;10.63;;;6.85;;
5585;SDS011;2815;54.094;12.112;2022-10-18T03:31:06;13.63;;;7.30;;
5585;SDS011;2815;54.094;12.112;2022-10-18T03:33:34;19.48;;;7.20;;
5585;SDS011;2815;54.094;12.112;2022-10-18T03:36:02;11.35;;;6.47;;
5585;SDS011;2815;54.094;12.112;2022-10-18T03:38:30;13.25;;;7.10;;
5585;SDS011;2815;54.094;12.112;2022-10-18T03:40:59;12.73;;;6.55;;
5585;SDS011;2815;54.094;12.112;2022-10-18T03:43:27;21.80;;;7.72;;
5585;SDS011;2815;54.094;12.112;2022-10-18T03:45:55;14.75;;;7.82;;
5585;SDS011;2815;54.094;12.112;2022-10-18T03:48:23;17.83;;;6.55;;
5585;SDS011;2815;54.094;12.112;2022-10-18T03:50:51;15.43;;;7.82;;
5585;SDS011;2815;54.094;12.112;2022-10-18T03:53:19;16.30;;;7.90;;
5585;SDS011;2815;54.094;12.112;2022-10-18T03:55:49;16.83;;;7.88;;
5585;SDS011;2815;54.094;12.112;2022-10-18T04:02:19;16.75;;;8.32;;
5585;SDS011;2815;54.094;12.112;2022-10-18T04:04:46;19.63;;;8.48;;
5585;SDS011;2815;54.094;12.112;2022-10-18T04:07:14;21.08;;;8.48;;
5585;SDS011;2815;54.094;12.112;2022-10-18T04:09:42;21.10;;;8.63;;
5585;SDS011;2815;54.094;12.112;2022-10-18T04:12:10;17.83;;;8.10;;
5585;SDS011;2815;54.094;12.112;2022-10-18T04:14:38;17.80;;;8.52;;
5585;SDS011;2815;54.094;12.112;2022-10-18T04:17:06;18.02;;;8.35;;
5585;SDS011;2815;54.094;12.112;2022-10-18T04:19:36;17.13;;;8.10;;
5585;SDS011;2815;54.094;12.112;2022-10-18T04:22:04;22.33;;;8.05;;
5585;SDS011;2815;54.094;12.112;2022-10-18T04:24:31;18.08;;;8.23;;
5585;SDS011;2815;54.094;12.112;2022-10-18T04:26:59;21.98;;;8.82;;
5585;SDS011;2815;54.094;12.112;2022-10-18T04:29:27;18.52;;;8.75;;
5585;SDS011;2815;54.094;12.112;2022-10-18T04:31:55;21.23;;;9.20;;
5585;SDS011;2815;54.094;12.112;2022-10-18T04:34:23;19.33;;;9.02;;
5585;SDS011;2815;54.094;12.112;2022-10-18T04:36:52;23.85;;;9.57;;
5585;SDS011;2815;54.094;12.112;2022-10-18T04:39:20;18.92;;;8.55;;
5585;SDS011;2815;54.094;12.112;2022-10-18T04:41:48;23.40;;;9.60;;
5585;SDS011;2815;54.094;12.112;2022-10-18T04:44:16;26.30;;;10.77;;
5585;SDS011;2815;54.094;12.112;2022-10-18T04:46:44;20.98;;;9.65;;
5585;SDS011;2815;54.094;12.112;2022-10-18T04:49:12;20.92;;;9.90;;
5585;SDS011;2815;54.094;12.112;2022-10-18T04:51:39;20.10;;;9.52;;
5585;SDS011;2815;54.094;12.112;2022-10-18T04:54:09;21.60;;;9.43;;
5585;SDS011;2815;54.094;12.112;2022-10-18T04:56:37;27.27;;;10.65;;
5585;SDS011;2815;54.094;12.112;2022-10-18T04:59:05;27.27;;;10.82;;
5585;SDS011;2815;54.094;12.112;2022-10-18T05:01:33;30.08;;;10.70;;
5585;SDS011;2815;54.094;12.112;2022-10-18T05:04:01;19.00;;;9.68;;
5585;SDS011;2815;54.094;12.112;2022-10-18T05:06:28;26.48;;;10.52;;
5585;SDS011;2815;54.094;12.112;2022-10-18T05:08:56;25.45;;;10.63;;
5585;SDS011;2815;54.094;12.112;2022-10-18T05:11:26;29.17;;;11.60;;
5585;SDS011;2815;54.094;12.112;2022-10-18T05:13:53;24.38;;;11.52;;
5585;SDS011;2815;54.094;12.112;2022-10-18T05:16:21;22.40;;;10.93;;
5585;SDS011;2815;54.094;12.112;2022-10-18T05:18:49;21.20;;;10.90;;
5585;SDS011;2815;54.094;12.112;2022-10-18T05:21:17;25.92;;;10.55;;
5585;SDS011;2815;54.094;12.112;2022-10-18T05:23:45;23.63;;;10.57;;
5585;SDS011;2815;54.094;12.112;2022-10-18T05:26:13;29.83;;;12.10;;
5585;SDS011;2815;54.094;12.112;2022-10-18T05:28:42;23.60;;;10.60;;
5585;SDS011;2815;54.094;12.112;2022-10-18T05:31:10;28.13;;;10.20;;
5585;SDS011;2815;54.094;12.112;2022-10-18T05:33:38;24.38;;;10.85;;
5585;SDS011;2815;54.094;12.112;2022-10-18T05:36:07;29.58;;;12.82;;
5585;SDS011;2815;54.094;12.112;2022-10-18T05:38:37;44.90;;;12.13;;
5585;SDS011;2815;54.094;12.112;2022-10-18T05:41:07;28.17;;;11.83;;
5585;SDS011;2815;54.094;12.112;2022-10-18T05:43:35;31.58;;;12.30;;
5585;SDS011;2815;54.094;12.112;2022-10-18T05:46:05;33.65;;;12.63;;
5585;SDS011;2815;54.094;12.112;2022-10-18T05:48:40;32.13;;;11.80;;
5585;SDS011;2815;54.094;12.112;2022-10-18T05:51:09;34.08;;;12.68;;
5585;SDS011;2815;54.094;12.112;2022-10-18T05:53:37;31.67;;;12.23;;
5585;SDS011;2815;54.094;12.112;2022-10-18T05:56:05;29.58;;;12.43;;
5585;SDS011;2815;54.094;12.112;2022-10-18T05:58:33;31.33;;;12.82;;
5585;SDS011;2815;54.094;12.112;2022-10-18T06:01:03;30.55;;;13.10;;
5585;SDS011;2815;54.094;12.112;2022-10-18T06:03:33;35.45;;;14.30;;
5585;SDS011;2815;54.094;12.112;2022-10-18T06:06:02;28.92;;;12.45;;
5585;SDS011;2815;54.094;12.112;2022-10-18T06:08:31;33.08;;;13.75;;
5585;SDS011;2815;54.094;12.112;2022-10-18T06:11:04;33.72;;;14.30;;
5585;SDS011;2815;54.094;12.112;2022-10-18T06:13:32;30.92;;;13.93;;
5585;SDS011;2815;54.094;12.112;2022-10-18T06:16:00;32.28;;;14.30;;
5585;SDS011;2815;54.094;12.112;2022-10-18T06:18:30;31.48;;;14.48;;
5585;SDS011;2815;54.094;12.112;2022-10-18T06:20:58;34.78;;;14.13;;
5585;SDS011;2815;54.094;12.112;2022-10-18T06:23:26;28.27;;;12.70;;
5585;SDS011;2815;54.094;12.112;2022-10-18T06:25:56;30.58;;;13.40;;
5585;SDS011;2815;54.094;12.112;2022-10-18T06:28:25;29.23;;;13.27;;
5585;SDS011;2815;54.094;12.112;2022-10-18T06:30:54;37.70;;;15.07;;
5585;SDS011;2815;54.094;12.112;2022-10-18T06:33:22;39.22;;;14.05;;
5585;SDS011;2815;54.094;12.112;2022-10-18T06:35:56;39.85;;;14.68;;
5585;SDS011;2815;54.094;12.112;2022-10-18T06:38:25;35.97;;;13.93;;
5585;SDS011;2815;54.094;12.112;2022-10-18T06:40:53;33.22;;;13.73;;
5585;SDS011;2815;54.094;12.112;2022-10-18T06:43:21;35.08;;;14.25;;
5585;SDS011;2815;54.094;12.112;2022-10-18T06:45:50;32.25;;;13.55;;
5585;SDS011;2815;54.094;12.112;2022-10-18T06:48:18;30.35;;;14.02;;
5585;SDS011;2815;54.094;12.112;2022-10-18T06:50:49;38.58;;;15.93;;
5585;SDS011;2815;54.094;12.112;2022-10-18T06:53:19;41.55;;;15.68;;
5585;SDS011;2815;54.094;12.112;2022-10-18T06:55:47;36.20;;;14.38;;
5585;SDS011;2815;54.094;12.112;2022-10-18T06:58:16;36.03;;;15.70;;
5585;SDS011;2815;54.094;12.112;2022-10-18T07:00:44;33.88;;;12.75;;
5585;SDS011;2815;54.094;12.112;2022-10-18T07:03:12;44.13;;;15.38;;
5585;SDS011;2815;54.094;12.112;2022-10-18T07:05:40;37.60;;;14.77;;
5585;SDS011;2815;54.094;12.112;2022-10-18T07:08:08;33.60;;;14.65;;
5585;SDS011;2815;54.094;12.112;2022-10-18T07:10:37;35.95;;;14.88;;
5585;SDS011;2815;54.094;12.112;2022-10-18T07:13:05;39.97;;;15.60;;
5585;SDS011;2815;54.094;12.112;2022-10-18T07:16:00;30.98;;;13.27;;
5585;SDS011;2815;54.094;12.112;2022-10-18T07:18:29;32.95;;;13.80;;
5585;SDS011;2815;54.094;12.112;2022-10-18T07:20:59;31.67;;;14.02;;
5585;SDS011;2815;54.094;12.112;2022-10-18T07:23:28;33.53;;;12.95;;
5585;SDS011;2815;54.094;12.112;2022-10-18T07:25:59;33.03;;;14.70;;
5585;SDS011;2815;54.094;12.112;2022-10-18T07:28:28;35.13;;;14.32;;
5585;SDS011;2815;54.094;12.112;2022-10-18T07:30:56;38.20;;;13.88;;
5585;SDS011;2815;54.094;12.112;2022-10-18T07:33:31;31.27;;;13.48;;
5585;SDS011;2815;54.094;12.112;2022-10-18T07:35:59;32.67;;;13.95;;
5585;SDS011;2815;54.094;12.112;2022-10-18T07:38:28;27.33;;;12.93;;
5585;SDS011;2815;54.094;12.112;2022-10-18T07:40:56;33.47;;;13.60;;
5585;SDS011;2815;54.094;12.112;2022-10-18T07:43:26;34.42;;;14.27;;
5585;SDS011;2815;54.094;12.112;2022-10-18T07:45:55;34.15;;;14.18;;
5585;SDS011;2815;54.094;12.112;2022-10-18T07:48:24;27.85;;;13.10;;
5585;SDS011;2815;54.094;12.112;2022-10-18T07:50:52;27.77;;;13.63;;
5585;SDS011;2815;54.094;12.112;2022-10-18T07:53:20;32.83;;;12.85;;
5585;SDS011;2815;54.094;12.112;2022-10-18T07:55:48;31.25;;;12.02;;
5585;SDS011;2815;54.094;12.112;2022-10-18T07:58:15;32.13;;;12.48;;
5585;SDS011;2815;54.094;12.112;2022-10-18T08:00:45;27.58;;;11.95;;
5585;SDS011;2815;54.094;12.112;2022-10-18T08:03:13;33.25;;;12.25;;
5585;SDS011;2815;54.094;12.112;2022-10-18T08:05:41;22.80;;;11.73;;
5585;SDS011;2815;54.094;12.112;2022-10-18T08:08:09;25.92;;;12.05;;
5585;SDS011;2815;54.094;12.112;2022-10-18T08:10:37;24.55;;;10.30;;
5585;SDS011;2815;54.094;12.112;2022-10-18T08:13:05;27.02;;;11.20;;
5585;SDS011;2815;54.094;12.112;2022-10-18T08:15:33;26.80;;;12.23;;
5585;SDS011;2815;54.094;12.112;2022-10-18T08:18:03;27.52;;;9.98;;
5585;SDS011;2815;54.094;12.112;2022-10-18T08:20:31;28.40;;;11.15;;
5585;SDS011;2815;54.094;12.112;2022-10-18T08:22:59;21.67;;;10.43;;
5585;SDS011;2815;54.094;12.112;2022-10-18T08:25:26;20.92;;;10.02;;
5585;SDS011;2815;54.094;12.112;2022-10-18T08:27:54;24.05;;;9.68;;
5585;SDS011;2815;54.094;12.112;2022-10-18T08:30:22;21.95;;;9.57;;
5585;SDS011;2815;54.094;12.112;2022-10-18T08:32:50;31.98;;;9.15;;
5585;SDS011;2815;54.094;12.112;2022-10-18T08:35:20;23.50;;;8.75;;
5585;SDS011;2815;54.094;12.112;2022-10-18T08:37:48;18.55;;;7.10;;
5585;SDS011;2815;54.094;12.112;2022-10-18T08:40:16;15.00;;;6.53;;
5585;SDS011;2815;54.094;12.112;2022-10-18T08:45:33;21.67;;;8.00;;
5585;SDS011;2815;54.094;12.112;2022-10-18T08:48:13;13.98;;;7.18;;
5585;SDS011;2815;54.094;12.112;2022-10-18T08:50:45;23.42;;;9.23;;
5585;SDS011;2815;54.094;12.112;2022-10-18T08:53:16;20.83;;;7.43;;
5585;SDS011;2815;54.094;12.112;2022-10-18T08:55:47;16.98;;;8.18;;
5585;SDS011;2815;54.094;12.112;2022-10-18T08:58:18;15.45;;;7.22;;
5585;SDS011;2815;54.094;12.112;2022-10-18T09:00:49;21.20;;;8.48;;
5585;SDS011;2815;54.094;12.112;2022-10-18T09:03:25;20.02;;;7.97;;
5585;SDS011;2815;54.094;12.112;2022-10-18T09:06:02;16.52;;;7.10;;
5585;SDS011;2815;54.094;12.112;2022-10-18T09:08:49;18.00;;;7.53;;
5585;SDS011;2815;54.094;12.112;2022-10-18T09:11:32;20.70;;;7.10;;
5585;SDS011;2815;54.094;12.112;2022-10-18T09:14:13;18.65;;;7.35;;
5585;SDS011;2815;54.094;12.112;2022-10-18T09:17:01;21.50;;;7.55;;
5585;SDS011;2815;54.094;12.112;2022-10-18T09:19:45;17.23;;;7.15;;
5585;SDS011;2815;54.094;12.112;2022-10-18T09:22:23;26.35;;;8.23;;
5585;SDS011;2815;54.094;12.112;2022-10-18T09:24:57;17.50;;;7.53;;
5585;SDS011;2815;54.094;12.112;2022-10-18T09:27:31;16.13;;;7.07;;
5585;SDS011;2815;54.094;12.112;2022-10-18T09:30:04;15.45;;;7.05;;
5585;SDS011;2815;54.094;12.112;2022-10-18T09:32:40;16.17;;;6.68;;
5585;SDS011;2815;54.094;12.112;2022-10-18T09:35:12;17.80;;;6.43;;
5585;SDS011;2815;54.094;12.112;2022-10-18T09:37:44;17.80;;;7.90;;
5585;SDS011;2815;54.094;12.112;2022-10-18T09:40:14;15.23;;;7.15;;
5585;SDS011;2815;54.094;12.112;2022-10-18T09:42:48;12.48;;;6.22;;
5585;SDS011;2815;54.094;12.112;2022-10-18T09:45:23;17.80;;;6.95;;
5585;SDS011;2815;54.094;12.112;2022-10-18T09:47:55;15.82;;;5.40;;
5585;SDS011;2815;54.094;12.112;2022-10-18T09:50:29;17.05;;;6.28;;
5585;SDS011;2815;54.094;12.112;2022-10-18T09:53:03;15.82;;;5.75;;
5585;SDS011;2815;54.094;12.112;2022-10-18T09:55:39;8.93;;;4.70;;
5585;SDS011;2815;54.094;12.112;2022-10-18T09:58:17;12.27;;;5.70;;
5585;SDS011;2815;54.094;12.112;2022-10-18T10:00:47;17.35;;;6.55;;
5585;SDS011;2815;54.094;12.112;2022-10-18T10:03:16;13.68;;;6.22;;
5585;SDS011;2815;54.094;12.112;2022-10-18T10:05:44;14.70;;;5.80;;
5585;SDS011;2815;54.094;12.112;2022-10-18T10:08:13;15.00;;;5.13;;
5585;SDS011;2815;54.094;12.112;2022-10-18T10:10:45;17.73;;;6.20;;
5585;SDS011;2815;54.094;12.112;2022-10-18T10:13:14;17.53;;;6.30;;
5585;SDS011;2815;54.094;12.112;2022-10-18T10:15:44;11.45;;;5.20;;
5585;SDS011;2815;54.094;12.112;2022-10-18T10:18:16;18.30;;;6.20;;
5585;SDS011;2815;54.094;12.112;2022-10-18T10:20:47;12.93;;;5.72;;
5585;SDS011;2815;54.094;12.112;2022-10-18T10:23:20;14.98;;;5.43;;
5585;SDS011;2815;54.094;12.112;2022-10-18T10:25:50;11.45;;;4.93;;
5585;SDS011;2815;54.094;12.112;2022-10-18T10:28:20;10.48;;;4.53;;
5585;SDS011;2815;54.094;12.112;2022-10-18T10:30:49;16.85;;;4.95;;
5585;SDS011;2815;54.094;12.112;2022-10-18T10:33:28;15.75;;;5.00;;
5585;SDS011;2815;54.094;12.112;2022-10-18T10:35:58;18.30;;;6.28;;
5585;SDS011;2815;54.094;12.112;2022-10-18T10:38:28;12.82;;;5.35;;
5585;SDS011;2815;54.094;12.112;2022-10-18T10:40:57;15.60;;;4.88;;
5585;SDS011;2815;54.094;12.112;2022-10-18T10:43:27;12.80;;;5.38;;
5585;SDS011;2815;54.094;12.112;2022-10-18T10:46:05;14.88;;;5.57;;
5585;SDS011;2815;54.094;12.112;2022-10-18T10:48:38;14.80;;;6.28;;
5585;SDS011;2815;54.094;12.112;2022-10-18T10:51:08;15.02;;;5.45;;
5585;SDS011;2815;54.094;12.112;2022-10-18T10:53:39;19.52;;;6.20;;
5585;SDS011;2815;54.094;12.112;2022-10-18T10:56:17;17.95;;;5.90;;
5585;SDS011;2815;54.094;12.112;2022-10-18T10:58:48;18.75;;;6.38;;
5585;SDS011;2815;54.094;12.112;2022-10-18T11:01:24;15.93;;;7.43;;
5585;SDS011;2815;54.094;12.112;2022-10-18T11:03:54;14.75;;;6.75;;
5585;SDS011;2815;54.094;12.112;2022-10-18T11:12:11;16.58;;;6.15;;
5585;SDS011;2815;54.094;12.112;2022-10-18T11:14:46;15.40;;;6.03;;
5585;SDS011;2815;54.094;12.112;2022-10-18T11:17:20;15.30;;;6.30;;
5585;SDS011;2815;54.094;12.112;2022-10-18T11:22:49;12.15;;;4.63;;
5585;SDS011;2815;54.094;12.112;2022-10-18T11:25:31;12.80;;;4.80;;
5585;SDS011;2815;54.094;12.112;2022-10-18T11:28:14;14.85;;;5.13;;
5585;SDS011;2815;54.094;12.112;2022-10-18T11:30:46;12.93;;;4.30;;
5585;SDS011;2815;54.094;12.112;2022-10-18T11:33:21;9.65;;;4.15;;
5585;SDS011;2815;54.094;12.112;2022-10-18T11:36:11;15.73;;;4.65;;
5585;SDS011;2815;54.094;12.112;2022-10-18T11:38:44;20.67;;;3.85;;
5585;SDS011;2815;54.094;12.112;2022-10-18T11:41:20;10.73;;;4.15;;
5585;SDS011;2815;54.094;12.112;2022-10-18T11:43:57;9.75;;;3.60;;
5585;SDS011;2815;54.094;12.112;2022-10-18T11:46:32;12.05;;;3.67;;
5585;SDS011;2815;54.094;12.112;2022-10-18T11:49:14;12.18;;;4.03;;
5585;SDS011;2815;54.094;12.112;2022-10-18T11:51:50;9.57;;;3.47;;
5585;SDS011;2815;54.094;12.112;2022-10-18T11:54:38;9.45;;;3.00;;
5585;SDS011;2815;54.094;12.112;2022-10-18T11:57:24;9.23;;;3.53;;
5585;SDS011;2815;54.094;12.112;2022-10-18T12:00:01;7.03;;;2.85;;
5585;SDS011;2815;54.094;12.112;2022-10-18T12:02:53;10.10;;;3.13;;
5585;SDS011;2815;54.094;12.112;2022-10-18T12:05:29;8.63;;;3.10;;
5585;SDS011;2815;54.094;12.112;2022-10-18T12:08:01;11.10;;;3.00;;
5585;SDS011;2815;54.094;12.112;2022-10-18T12:10:32;12.35;;;3.72;;
5585;SDS011;2815;54.094;12.112;2022-10-18T12:13:24;9.13;;;3.30;;
5585;SDS011;2815;54.094;12.112;2022-10-18T12:24:19;14.93;;;3.10;;
5585;SDS011;2815;54.094;12.112;2022-10-18T12:26:48;9.85;;;2.70;;
5585;SDS011;2815;54.094;12.112;2022-10-18T12:29:21;10.45;;;2.70;;
5585;SDS011;2815;54.094;12.112;2022-10-18T12:31:54;5.28;;;2.10;;
5585;SDS011;2815;54.094;12.112;2022-10-18T12:34:29;8.30;;;2.63;;
5585;SDS011;2815;54.094;12.112;2022-10-18T12:37:14;13.55;;;2.42;;
5585;SDS011;2815;54.094;12.112;2022-10-18T12:39:48;8.95;;;2.35;;
5585;SDS011;2815;54.094;12.112;2022-10-18T12:42:39;8.70;;;2.40;;
5585;SDS011;2815;54.094;12.112;2022-10-18T12:45:18;6.07;;;2.40;;
5585;SDS011;2815;54.094;12.112;2022-10-18T12:47:51;9.35;;;2.40;;
5585;SDS011;2815;54.094;12.112;2022-10-18T12:50:28;12.02;;;2.63;;
5585;SDS011;2815;54.094;12.112;2022-10-18T12:53:03;9.45;;;2.13;;
5585;SDS011;2815;54.094;12.112;2022-10-18T12:55:33;10.85;;;2.30;;
5585;SDS011;2815;54.094;12.112;2022-10-18T12:58:04;9.15;;;2.30;;
5585;SDS011;2815;54.094;12.112;2022-10-18T13:00:52;8.40;;;2.03;;
5585;SDS011;2815;54.094;12.112;2022-10-18T13:03:27;10.63;;;2.38;;
5585;SDS011;2815;54.094;12.112;2022-10-18T13:06:20;10.85;;;2.40;;
5585;SDS011;2815;54.094;12.112;2022-10-18T13:11:45;9.73;;;2.60;;
5585;SDS011;2815;54.094;12.112;2022-10-18T13:17:17;9.77;;;2.20;;
5585;SDS011;2815;54.094;12.112;2022-10-18T13:19:52;10.10;;;2.20;;
5585;SDS011;2815;54.094;12.112;2022-10-18T13:22:52;8.93;;;2.47;;
5585;SDS011;2815;54.094;12.112;2022-10-18T13:25:28;8.98;;;1.80;;
5585;SDS011;2815;54.094;12.112;2022-10-18T13:28:01;13.75;;;2.22;;
5585;SDS011;2815;54.094;12.112;2022-10-18T13:30:42;8.27;;;1.90;;
5585;SDS011;2815;54.094;12.112;2022-10-18T13:33:18;10.15;;;1.83;;
5585;SDS011;2815;54.094;12.112;2022-10-18T13:35:53;10.82;;;1.75;;
5585;SDS011;2815;54.094;12.112;2022-10-18T13:38:28;7.13;;;1.60;;
5585;SDS011;2815;54.094;12.112;2022-10-18T13:41:09;7.15;;;1.88;;
5585;SDS011;2815;54.094;12.112;2022-10-18T13:43:57;9.15;;;2.40;;
5585;SDS011;2815;54.094;12.112;2022-10-18T13:49:59;12.90;;;2.10;;
5585;SDS011;2815;54.094;12.112;2022-10-18T13:59:20;10.90;;;1.92;;
5585;SDS011;2815;54.094;12.112;2022-10-18T14:02:03;11.80;;;2.10;;
5585;SDS011;2815;54.094;12.112;2022-10-18T14:04:46;13.40;;;1.80;;
5585;SDS011;2815;54.094;12.112;2022-10-18T14:07:47;11.95;;;1.77;;
5585;SDS011;2815;54.094;12.112;2022-10-18T14:10:19;6.22;;;1.30;;
5585;SDS011;2815;54.094;12.112;2022-10-18T14:13:13;8.93;;;1.52;;
5585;SDS011;2815;54.094;12.112;2022-10-18T14:15:44;8.27;;;1.55;;
5585;SDS011;2815;54.094;12.112;2022-10-18T14:18:20;9.68;;;1.73;;
5585;SDS011;2815;54.094;12.112;2022-10-18T14:21:00;9.45;;;2.03;;
5585;SDS011;2815;54.094;12.112;2022-10-18T14:23:41;10.40;;;1.90;;
5585;SDS011;2815;54.094;12.112;2022-10-18T14:26:12;7.72;;;1.50;;
5585;SDS011;2815;54.094;12.112;2022-10-18T14:28:41;11.02;;;2.00;;
5585;SDS011;2815;54.094;12.112;2022-10-18T14:31:26;10.15;;;1.58;;
5585;SDS011;2815;54.094;12.112;2022-10-18T14:33:55;7.40;;;1.67;;
5585;SDS011;2815;54.094;12.112;2022-10-18T14:36:26;8.73;;;1.70;;
5585;SDS011;2815;54.094;12.112;2022-10-18T14:38:57;7.40;;;1.85;;
5585;SDS011;2815;54.094;12.112;2022-10-18T14:41:26;12.80;;;1.70;;
5585;SDS011;2815;54.094;12.112;2022-10-18T14:44:08;7.72;;;1.70;;
5585;SDS011;2815;54.094;12.112;2022-10-18T14:46:44;7.13;;;1.67;;
5585;SDS011;2815;54.094;12.112;2022-10-18T14:49:13;9.38;;;1.88;;
5585;SDS011;2815;54.094;12.112;2022-10-18T14:51:44;13.10;;;2.47;;
5585;SDS011;2815;54.094;12.112;2022-10-18T14:54:14;8.75;;;1.88;;
5585;SDS011;2815;54.094;12.112;2022-10-18T14:56:44;14.48;;;1.92;;
5585;SDS011;2815;54.094;12.112;2022-10-18T14:59:14;10.35;;;2.00;;
5585;SDS011;2815;54.094;12.112;2022-10-18T15:01:51;9.02;;;1.88;;
5585;SDS011;2815;54.094;12.112;2022-10-18T15:04:25;10.70;;;1.70;;
5585;SDS011;2815;54.094;12.112;2022-10-18T15:07:01;10.52;;;1.75;;
5585;SDS011;2815;54.094;12.112;2022-10-18T15:11:59;7.88;;;1.80;;
5585;SDS011;2815;54.094;12.112;2022-10-18T15:14:27;8.10;;;1.55;;
5585;SDS011;2815;54.094;12.112;2022-10-18T15:16:57;10.27;;;1.80;;
5585;SDS011;2815;54.094;12.112;2022-10-18T15:19:31;6.30;;;1.73;;
5585;SDS011;2815;54.094;12.112;2022-10-18T15:22:02;5.00;;;1.50;;
5585;SDS011;2815;54.094;12.112;2022-10-18T15:27:43;9.60;;;1.45;;
5585;SDS011;2815;54.094;12.112;2022-10-18T15:30:14;9.30;;;1.73;;
5585;SDS011;2815;54.094;12.112;2022-10-18T15:32:46;7.63;;;1.40;;
5585;SDS011;2815;54.094;12.112;2022-10-18T15:35:16;11.52;;;2.05;;
5585;SDS011;2815;54.094;12.112;2022-10-18T15:37:53;5.72;;;1.40;;
5585;SDS011;2815;54.094;12.112;2022-10-18T15:40:33;7.38;;;1.48;;
5585;SDS011;2815;54.094;12.112;2022-10-18T15:43:04;10.55;;;1.52;;
5585;SDS011;2815;54.094;12.112;2022-10-18T15:45:35;7.80;;;1.42;;
5585;SDS011;2815;54.094;12.112;2022-10-18T15:48:16;5.72;;;1.30;;
5585;SDS011;2815;54.094;12.112;2022-10-18T15:50:47;6.47;;;1.42;;
5585;SDS011;2815;54.094;12.112;2022-10-18T15:53:23;5.18;;;0.90;;
5585;SDS011;2815;54.094;12.112;2022-10-18T15:55:59;7.93;;;0.98;;
5585;SDS011;2815;54.094;12.112;2022-10-18T15:58:29;7.45;;;1.38;;
5585;SDS011;2815;54.094;12.112;2022-10-18T16:01:03;9.13;;;1.50;;
5585;SDS011;2815;54.094;12.112;2022-10-18T16:03:32;6.75;;;1.00;;
5585;SDS011;2815;54.094;12.112;2022-10-18T16:06:02;8.20;;;1.35;;
5585;SDS011;2815;54.094;12.112;2022-10-18T16:08:35;7.55;;;1.00;;
5585;SDS011;2815;54.094;12.112;2022-10-18T16:11:06;6.68;;;1.00;;
5585;SDS011;2815;54.094;12.112;2022-10-18T16:13:35;7.03;;;1.50;;